Time;durP1;ratioP1;P1;durP2;ratioP2;P2;SDS_P1;SDS_P2;PMS_P1;PMS_P2;Temp;Humidity;BMP_temperature;BMP_pressure;BME280_temperature;BME280_humidity;BME280_pressure;Samples;Min_cycle;Max_cycle;Signal;HPM_P1;HPM_P2
2022/06/11 00:01:19;;;;;;;6.40;3.33;;;25.50;47.50;;;;;;5053985;28;20025;-77
2022/06/11 00:03:46;;;;;;;6.43;3.30;;;25.50;47.70;;;;;;5053466;28;20036;-77
2022/06/11 00:06:12;;;;;;;6.80;3.63;;;25.50;47.70;;;;;;5053860;28;20029;-77
2022/06/11 00:08:38;;;;;;;7.88;3.58;;;25.50;47.80;;;;;;5053193;28;20056;-77
2022/06/11 00:11:06;;;;;;;4.50;3.38;;;25.40;47.90;;;;;;5053637;28;20508;-77
2022/06/11 00:13:32;;;;;;;5.43;3.75;;;25.40;48.00;;;;;;5035458;28;20040;-78
2022/06/11 00:15:58;;;;;;;4.57;3.40;;;25.50;48.10;;;;;;5053857;28;20072;-77
2022/06/11 00:18:25;;;;;;;5.65;3.70;;;25.40;48.10;;;;;;5053482;28;20471;-77
2022/06/11 00:20:51;;;;;;;5.47;3.80;;;25.40;48.20;;;;;;5053695;28;20036;-77
2022/06/11 00:23:17;;;;;;;6.30;4.40;;;25.40;48.20;;;;;;5053520;28;20025;-76
2022/06/11 00:25:43;;;;;;;7.70;4.63;;;25.40;48.20;;;;;;5035251;28;20031;-76
2022/06/11 00:28:09;;;;;;;7.35;4.43;;;25.40;48.30;;;;;;5053057;28;20078;-76
2022/06/11 00:30:35;;;;;;;9.23;4.65;;;25.40;48.30;;;;;;5035888;28;20454;-77
2022/06/11 00:33:06;;;;;;;7.47;4.35;;;25.40;48.40;;;;;;5053102;28;20028;-75
2022/06/11 00:35:33;;;;;;;6.30;4.13;;;25.40;48.40;;;;;;5053635;28;20108;-77
2022/06/11 00:38:00;;;;;;;7.20;4.78;;;25.40;48.40;;;;;;5035450;28;20025;-77
2022/06/11 00:40:27;;;;;;;6.43;4.50;;;25.40;48.50;;;;;;5053796;28;20045;-77
2022/06/11 00:42:53;;;;;;;6.93;4.50;;;25.40;48.60;;;;;;5053308;28;20025;-76
2022/06/11 00:45:25;;;;;;;5.30;3.97;;;25.40;48.70;;;;;;5053348;28;20036;-77
2022/06/11 00:48:05;;;;;;;7.38;4.80;;;25.40;49.10;;;;;;5052929;28;20391;-77
2022/06/11 00:50:39;;;;;;;8.65;4.55;;;25.40;50.20;;;;;;5053230;28;20091;-77
2022/06/11 00:53:17;;;;;;;5.63;4.40;;;25.30;49.10;;;;;;5053797;28;20024;-77
2022/06/11 00:55:45;;;;;;;6.75;4.65;;;25.20;49.10;;;;;;5035889;28;20029;-77
2022/06/11 00:58:14;;;;;;;6.47;4.40;;;25.30;49.30;;;;;;5035726;28;20053;-76
2022/06/11 01:00:59;;;;;;;4.85;4.13;;;25.20;49.30;;;;;;5052892;28;20029;-78
2022/06/11 01:03:30;;;;;;;5.35;3.90;;;25.20;50.20;;;;;;5052873;28;20021;-78
2022/06/11 01:06:23;;;;;;;6.75;4.13;;;25.20;49.50;;;;;;5053097;28;20464;-77
2022/06/11 01:09:13;;;;;;;6.28;4.47;;;25.20;49.90;;;;;;5053158;28;20040;-76
2022/06/11 01:11:47;;;;;;;5.82;4.40;;;25.20;50.50;;;;;;5052828;28;20029;-76
2022/06/11 01:14:31;;;;;;;5.93;4.10;;;25.20;49.90;;;;;;5035064;28;20033;-77
2022/06/11 01:17:00;;;;;;;6.50;4.43;;;25.20;50.10;;;;;;5048296;28;20036;-76
2022/06/11 01:20:07;;;;;;;5.82;4.30;;;25.20;50.30;;;;;;5056474;28;20475;-76
2022/06/11 01:22:50;;;;;;;6.82;4.43;;;25.20;51.30;;;;;;5055750;28;20055;-77
2022/06/11 01:25:49;;;;;;;5.82;4.57;;;25.20;51.00;;;;;;5056535;28;20387;-77
2022/06/11 01:28:33;;;;;;;6.93;4.40;;;25.20;50.80;;;;;;5056382;28;20028;-77
2022/06/11 01:31:13;;;;;;;6.47;4.35;;;25.20;50.90;;;;;;5056380;28;20060;-77
2022/06/11 01:33:50;;;;;;;5.55;4.07;;;25.10;51.70;;;;;;5056410;28;20062;-77
2022/06/11 01:36:24;;;;;;;5.45;4.07;;;25.10;51.40;;;;;;5056233;28;20043;-77
2022/06/11 01:38:57;;;;;;;5.07;4.00;;;25.00;51.50;;;;;;5038184;28;20067;-77
2022/06/11 01:41:46;;;;;;;6.10;4.20;;;25.00;51.60;;;;;;5056447;28;20386;-77
2022/06/11 01:44:18;;;;;;;6.35;4.22;;;25.00;52.50;;;;;;5056116;28;20104;-77
2022/06/11 01:46:47;;;;;;;5.55;4.13;;;25.00;51.90;;;;;;5056262;28;20025;-77
2022/06/11 01:49:21;;;;;;;5.18;4.10;;;25.00;52.10;;;;;;5038140;28;20040;-77
2022/06/11 01:51:53;;;;;;;4.88;4.15;;;24.90;52.50;;;;;;5055900;28;20036;-77
2022/06/11 01:54:31;;;;;;;6.40;4.30;;;24.80;52.20;;;;;;5038222;28;20017;-77
2022/06/11 01:57:19;;;;;;;6.22;3.92;;;24.80;52.90;;;;;;5055997;28;20108;-77
2022/06/11 01:59:50;;;;;;;6.25;4.70;;;24.70;52.80;;;;;;5038590;28;20091;-77
2022/06/11 02:02:19;;;;;;;5.68;4.13;;;24.60;52.90;;;;;;5055785;28;20513;-77
2022/06/11 02:05:08;;;;;;;6.00;4.20;;;24.50;52.70;;;;;;5055716;28;20035;-77
2022/06/11 02:07:45;;;;;;;5.32;4.07;;;24.50;53.70;;;;;;5038005;28;20033;-76
2022/06/11 02:10:23;;;;;;;7.82;4.65;;;24.50;53.20;;;;;;5056010;28;20379;-76
2022/06/11 02:12:55;;;;;;;4.88;3.75;;;24.40;53.90;;;;;;5055773;28;20088;-76
2022/06/11 02:15:36;;;;;;;6.57;4.35;;;24.40;53.20;;;;;;5055378;28;20112;-77
2022/06/11 02:18:08;;;;;;;9.07;4.10;;;24.40;53.50;;;;;;5037629;28;20098;-77
2022/06/11 02:20:45;;;;;;;6.38;4.30;;;24.40;53.30;;;;;;5056344;28;20025;-77
2022/06/11 02:23:24;;;;;;;5.72;4.25;;;24.40;53.40;;;;;;5037377;28;20029;-76
2022/06/11 02:25:54;;;;;;;5.55;4.07;;;24.40;53.50;;;;;;5055321;28;20029;-77
2022/06/11 02:28:22;;;;;;;7.38;4.45;;;24.40;53.30;;;;;;5054442;28;20033;-77
2022/06/11 02:30:51;;;;;;;5.85;4.60;;;24.40;53.30;;;;;;5055085;28;20032;-77
2022/06/11 02:33:18;;;;;;;6.47;4.30;;;24.50;53.40;;;;;;5055676;28;20049;-76
2022/06/11 02:36:00;;;;;;;8.10;4.55;;;24.50;53.40;;;;;;5055166;28;20029;-77
2022/06/11 02:38:27;;;;;;;6.25;4.22;;;24.50;53.70;;;;;;5037299;28;20041;-75
2022/06/11 02:40:58;;;;;;;8.13;4.80;;;24.50;53.30;;;;;;5055151;28;20029;-76
2022/06/11 02:43:24;;;;;;;6.32;4.30;;;24.60;53.40;;;;;;5055085;28;20025;-77
2022/06/11 02:45:50;;;;;;;4.82;3.90;;;24.50;53.30;;;;;;5055321;28;20024;-76
2022/06/11 02:48:16;;;;;;;7.40;4.43;;;24.60;53.30;;;;;;5054823;28;20075;-76
2022/06/11 02:50:43;;;;;;;6.30;4.10;;;24.70;53.40;;;;;;5054712;28;20057;-77
2022/06/11 02:53:10;;;;;;;5.88;4.47;;;24.70;53.30;;;;;;5054651;28;20526;-76
2022/06/11 02:55:37;;;;;;;6.85;5.05;;;24.70;53.10;;;;;;5054853;28;20502;-76
2022/06/11 02:58:05;;;;;;;6.38;4.50;;;24.70;53.10;;;;;;5054552;28;20120;-76
2022/06/11 03:00:35;;;;;;;6.05;4.57;;;24.70;53.10;;;;;;5054707;28;20029;-76
2022/06/11 03:03:01;;;;;;;5.93;4.43;;;24.70;53.20;;;;;;5054546;28;20364;-76
2022/06/11 03:05:30;;;;;;;6.55;4.40;;;24.70;53.20;;;;;;5054854;28;20028;-77
2022/06/11 03:07:58;;;;;;;7.82;4.90;;;24.80;53.30;;;;;;5054820;28;20025;-77
2022/06/11 03:10:25;;;;;;;6.75;5.20;;;24.80;53.30;;;;;;5054157;28;20049;-76
2022/06/11 03:12:51;;;;;;;6.07;4.90;;;24.90;53.30;;;;;;5054560;28;20032;-76
2022/06/11 03:15:18;;;;;;;6.95;5.32;;;24.90;53.20;;;;;;5054425;28;20028;-77
2022/06/11 03:17:44;;;;;;;7.20;5.07;;;24.90;53.20;;;;;;5054689;28;20021;-77
2022/06/11 03:20:12;;;;;;;6.18;4.95;;;25.00;53.20;;;;;;5054247;28;20040;-77
2022/06/11 03:22:38;;;;;;;6.10;4.90;;;25.10;53.20;;;;;;5036365;28;20036;-76
2022/06/11 03:25:04;;;;;;;7.53;5.10;;;25.10;53.20;;;;;;5053948;28;20035;-76
2022/06/11 03:27:30;;;;;;;8.80;5.43;;;25.10;53.20;;;;;;5054663;28;20039;-78
2022/06/11 03:29:56;;;;;;;6.88;5.40;;;25.10;53.20;;;;;;5054013;28;20407;-77
2022/06/11 03:32:22;;;;;;;7.65;5.07;;;25.20;53.20;;;;;;5054609;28;20062;-77
2022/06/11 03:34:48;;;;;;;7.80;5.15;;;25.20;53.20;;;;;;5053959;28;20029;-76
2022/06/11 03:37:14;;;;;;;8.07;5.07;;;25.30;53.20;;;;;;5054045;28;20028;-77
2022/06/11 03:39:41;;;;;;;10.07;5.50;;;25.30;53.10;;;;;;5053769;28;20049;-77
2022/06/11 03:42:07;;;;;;;7.35;5.13;;;25.30;53.10;;;;;;5036504;28;20116;-77
2022/06/11 03:44:33;;;;;;;6.07;4.90;;;25.40;53.10;;;;;;5036088;28;20468;-77
2022/06/11 03:46:59;;;;;;;6.00;4.93;;;25.40;53.00;;;;;;5035979;28;20025;-77
2022/06/11 03:49:25;;;;;;;7.07;5.20;;;25.40;52.90;;;;;;5053954;28;20036;-75
2022/06/11 03:51:51;;;;;;;6.15;4.68;;;25.50;52.90;;;;;;5035815;28;20364;-77
2022/06/11 03:54:17;;;;;;;6.10;5.00;;;25.50;52.90;;;;;;5053849;28;20460;-77
2022/06/11 03:56:45;;;;;;;6.32;5.03;;;25.60;52.80;;;;;;5054156;28;20052;-77
2022/06/11 03:59:13;;;;;;;7.65;5.35;;;25.60;52.80;;;;;;5054122;28;20050;-76
2022/06/11 04:01:40;;;;;;;6.28;4.47;;;25.70;52.80;;;;;;5053643;28;20415;-76
2022/06/11 04:04:09;;;;;;;6.75;4.35;;;25.70;52.90;;;;;;5053781;28;20464;-77
2022/06/11 04:06:41;;;;;;;6.63;4.63;;;25.70;52.90;;;;;;5053257;28;20079;-77
2022/06/11 04:09:11;;;;;;;6.65;4.97;;;25.70;52.90;;;;;;5036145;28;20087;-77
2022/06/11 04:11:37;;;;;;;7.82;4.95;;;25.70;52.90;;;;;;5053823;28;20120;-77
2022/06/11 04:14:04;;;;;;;5.68;4.10;;;25.70;53.00;;;;;;5053765;28;20495;-76
2022/06/11 04:16:39;;;;;;;6.47;4.85;;;25.70;53.10;;;;;;5053413;28;20048;-76
2022/06/11 04:19:07;;;;;;;6.55;4.50;;;25.70;53.10;;;;;;5053235;28;20035;-76
2022/06/11 04:21:34;;;;;;;6.47;4.90;;;25.70;53.10;;;;;;5053572;28;20025;-76
2022/06/11 04:24:02;;;;;;;5.68;4.55;;;25.70;53.10;;;;;;5053907;28;20025;-76
2022/06/11 04:26:33;;;;;;;6.20;4.40;;;25.80;53.10;;;;;;5053612;28;20033;-76
2022/06/11 04:29:00;;;;;;;6.57;4.30;;;25.80;53.10;;;;;;5053519;28;20383;-77
2022/06/11 04:31:27;;;;;;;6.28;4.53;;;25.80;53.10;;;;;;5053429;28;20029;-77
2022/06/11 04:33:54;;;;;;;6.63;4.47;;;25.80;53.10;;;;;;5053634;28;20032;-77
2022/06/11 04:36:23;;;;;;;6.72;4.35;;;25.80;53.10;;;;;;5053452;28;20040;-77
2022/06/11 04:38:49;;;;;;;5.35;4.10;;;25.80;53.00;;;;;;5053108;28;20048;-77
2022/06/11 04:41:15;;;;;;;5.95;3.63;;;25.80;53.00;;;;;;5035703;28;20025;-76
2022/06/11 04:43:41;;;;;;;5.20;3.83;;;25.90;53.00;;;;;;5035189;28;20475;-77
2022/06/11 04:46:08;;;;;;;5.25;4.47;;;25.90;53.00;;;;;;5052922;28;20025;-76
2022/06/11 04:48:34;;;;;;;6.60;4.43;;;25.90;53.00;;;;;;5053200;28;20371;-77
2022/06/11 04:51:01;;;;;;;6.63;4.80;;;25.90;53.00;;;;;;5056006;28;20032;-77
2022/06/11 04:53:27;;;;;;;4.72;3.92;;;25.90;53.00;;;;;;5057005;28;20021;-77
2022/06/11 04:55:52;;;;;;;6.65;4.35;;;25.90;53.00;;;;;;5039306;28;20055;-77
2022/06/11 04:58:18;;;;;;;7.72;4.78;;;25.90;52.90;;;;;;5057303;28;20450;-76
2022/06/11 05:00:45;;;;;;;5.32;4.05;;;25.90;52.90;;;;;;5038794;28;20035;-77
2022/06/11 05:03:11;;;;;;;6.25;4.28;;;25.90;52.90;;;;;;5057231;28;20375;-76
2022/06/11 05:05:37;;;;;;;5.63;3.90;;;25.90;52.80;;;;;;5056966;28;20033;-77
2022/06/11 05:08:03;;;;;;;5.55;4.05;;;25.90;52.80;;;;;;5056773;28;20238;-77
2022/06/11 05:10:31;;;;;;;6.10;3.70;;;25.90;53.40;;;;;;5057000;28;20037;-77
2022/06/11 05:12:57;;;;;;;5.70;4.38;;;25.90;52.80;;;;;;5038834;28;20060;-77
2022/06/11 05:15:23;;;;;;;4.80;3.78;;;25.90;52.80;;;;;;5056606;28;20036;-77
2022/06/11 05:17:50;;;;;;;5.78;4.18;;;26.00;52.80;;;;;;5057122;28;20598;-77
2022/06/11 05:20:16;;;;;;;6.07;4.70;;;26.00;52.70;;;;;;5056526;28;20381;-77
2022/06/11 05:22:45;;;;;;;5.60;4.15;;;26.00;52.60;;;;;;5039059;28;20425;-77
2022/06/11 05:25:12;;;;;;;5.05;3.70;;;26.00;52.60;;;;;;5056581;28;20097;-76
2022/06/11 05:27:40;;;;;;;5.53;4.43;;;26.00;52.60;;;;;;5056319;28;20025;-76
2022/06/11 05:30:15;;;;;;;5.35;3.67;;;26.10;52.60;;;;;;5056314;28;20542;-78
2022/06/11 05:32:42;;;;;;;5.97;3.92;;;26.10;52.70;;;;;;5055081;28;20467;-77
2022/06/11 05:35:14;;;;;;;5.20;4.05;;;26.10;52.50;;;;;;5056579;28;20028;-76
2022/06/11 05:37:40;;;;;;;5.28;3.97;;;26.20;52.60;;;;;;5056223;28;20029;-77
2022/06/11 05:40:08;;;;;;;5.47;3.55;;;26.20;52.60;;;;;;5056034;28;20044;-77
2022/06/11 05:42:34;;;;;;;5.40;4.20;;;26.20;52.60;;;;;;5055832;28;20477;-77
2022/06/11 05:45:00;;;;;;;4.47;3.55;;;26.20;52.60;;;;;;5038453;28;20025;-77
2022/06/11 05:47:27;;;;;;;5.63;4.03;;;26.20;52.50;;;;;;5055995;28;20032;-77
2022/06/11 05:49:59;;;;;;;8.43;3.70;;;26.30;52.50;;;;;;5056174;28;20033;-77
2022/06/11 05:52:30;;;;;;;5.82;4.03;;;26.30;52.60;;;;;;5055892;28;20474;-77
2022/06/11 05:54:56;;;;;;;4.82;3.70;;;26.30;52.50;;;;;;5038094;28;20420;-78
2022/06/11 05:57:24;;;;;;;5.90;4.07;;;26.30;52.40;;;;;;5055829;28;20029;-78
2022/06/11 06:00:00;;;;;;;5.13;4.10;;;26.30;52.30;;;;;;5055513;28;20379;-77
2022/06/11 06:02:28;;;;;;;4.45;3.60;;;26.40;52.30;;;;;;5055506;28;20036;-77
2022/06/11 06:04:54;;;;;;;6.85;4.50;;;26.40;52.20;;;;;;5055482;28;20379;-77
2022/06/11 06:07:20;;;;;;;5.90;4.05;;;26.40;52.10;;;;;;5055798;28;20033;-77
2022/06/11 06:09:45;;;;;;;6.70;3.75;;;26.40;52.00;;;;;;5055276;28;20044;-77
2022/06/11 06:12:11;;;;;;;7.43;4.13;;;26.50;52.00;;;;;;5055440;28;20036;-77
2022/06/11 06:14:37;;;;;;;5.95;4.30;;;26.50;52.00;;;;;;5056067;28;20025;-77
2022/06/11 06:17:03;;;;;;;6.13;4.10;;;26.50;51.90;;;;;;5055572;28;20171;-77
2022/06/11 06:19:28;;;;;;;5.00;3.92;;;26.50;51.80;;;;;;5055116;28;20024;-76
2022/06/11 06:21:54;;;;;;;4.97;3.70;;;26.50;51.80;;;;;;5055322;28;20078;-77
2022/06/11 06:24:19;;;;;;;6.20;4.03;;;26.60;51.80;;;;;;5055157;28;20395;-77
2022/06/11 06:26:45;;;;;;;5.82;3.90;;;26.60;51.70;;;;;;5055513;28;20029;-77
2022/06/11 06:29:11;;;;;;;5.45;3.92;;;26.60;51.60;;;;;;5054972;28;20463;-77
2022/06/11 06:31:37;;;;;;;6.25;4.10;;;26.60;51.50;;;;;;5054898;28;20031;-77
2022/06/11 06:34:03;;;;;;;4.68;3.63;;;26.60;51.20;;;;;;5055406;28;20037;-77
2022/06/11 06:36:31;;;;;;;6.53;3.67;;;26.70;51.10;;;;;;5054791;28;20083;-77
2022/06/11 06:38:57;;;;;;;5.90;3.63;;;26.60;51.00;;;;;;5055006;28;20056;-77
2022/06/11 06:41:23;;;;;;;4.75;3.63;;;26.70;50.90;;;;;;5054862;28;20111;-77
2022/06/11 06:43:49;;;;;;;4.50;3.47;;;26.70;50.80;;;;;;5037106;28;20527;-77
2022/06/11 06:46:17;;;;;;;6.57;4.00;;;26.70;50.50;;;;;;5054779;28;20028;-77
2022/06/11 06:48:43;;;;;;;4.88;3.13;;;26.70;50.20;;;;;;5036726;28;20036;-77
2022/06/11 06:51:10;;;;;;;4.97;3.20;;;26.70;50.10;;;;;;5054768;28;20474;-77
2022/06/11 06:53:37;;;;;;;4.75;3.00;;;26.70;49.90;;;;;;5037528;28;20029;-77
2022/06/11 06:56:03;;;;;;;6.15;3.20;;;26.80;49.80;;;;;;5036753;28;20029;-77
2022/06/11 06:58:29;;;;;;;4.50;3.50;;;26.80;49.60;;;;;;5054452;28;20033;-77
2022/06/11 07:00:55;;;;;;;4.75;3.05;;;26.80;49.50;;;;;;5054414;28;20029;-77
2022/06/11 07:03:21;;;;;;;5.65;3.30;;;26.80;49.30;;;;;;5054648;28;20363;-77
2022/06/11 07:05:48;;;;;;;4.25;3.13;;;26.90;49.20;;;;;;5054185;28;20028;-78
2022/06/11 07:08:16;;;;;;;5.55;3.38;;;26.90;49.00;;;;;;5054566;28;20166;-77
2022/06/11 07:10:51;;;;;;;7.82;3.10;;;26.80;48.70;;;;;;5054272;28;20060;-79
2022/06/11 07:13:17;;;;;;;6.55;3.28;;;26.90;48.60;;;;;;5053808;28;20032;-77
2022/06/11 07:15:45;;;;;;;3.22;2.72;;;26.90;48.40;;;;;;5054129;28;20044;-76
2022/06/11 07:18:26;;;;;;;4.90;3.20;;;26.90;48.20;;;;;;5054098;28;20048;-77
2022/06/11 07:20:56;;;;;;;5.82;3.03;;;26.90;48.00;;;;;;5054288;28;20029;-76
2022/06/11 07:23:31;;;;;;;3.88;3.20;;;26.90;47.80;;;;;;5054480;28;20032;-77
2022/06/11 07:25:59;;;;;;;5.13;3.20;;;26.90;47.70;;;;;;5054546;28;20116;-77
2022/06/11 07:28:37;;;;;;;3.90;3.00;;;26.90;47.60;;;;;;5052811;28;20029;-76
2022/06/11 07:31:03;;;;;;;5.53;2.90;;;27.00;47.50;;;;;;5036076;28;20033;-78
2022/06/11 07:33:29;;;;;;;4.10;3.00;;;26.90;47.40;;;;;;5054097;28;20053;-78
2022/06/11 07:35:56;;;;;;;4.90;2.90;;;27.00;47.40;;;;;;5053762;28;20467;-78
2022/06/11 07:38:23;;;;;;;5.25;2.70;;;27.00;47.20;;;;;;5053607;28;20032;-78
2022/06/11 07:40:48;;;;;;;4.43;2.88;;;27.00;47.10;;;;;;5053856;28;20057;-76
2022/06/11 07:43:16;;;;;;;3.63;2.83;;;27.00;47.10;;;;;;5053508;28;20053;-77
2022/06/11 07:45:43;;;;;;;4.25;2.80;;;27.00;46.90;;;;;;5053636;28;20109;-77
2022/06/11 07:48:10;;;;;;;3.42;2.58;;;27.00;46.80;;;;;;5053553;28;20108;-77
2022/06/11 07:50:39;;;;;;;3.45;2.55;;;27.10;46.80;;;;;;5054063;28;20037;-77
2022/06/11 07:53:06;;;;;;;4.25;2.53;;;27.10;46.60;;;;;;5053412;28;20043;-77
2022/06/11 07:55:33;;;;;;;3.53;2.70;;;27.10;46.50;;;;;;5053537;28;20053;-77
2022/06/11 07:57:59;;;;;;;4.72;2.70;;;27.10;46.30;;;;;;5053686;28;20063;-77
2022/06/11 08:00:31;;;;;;;4.10;2.80;;;27.10;46.10;;;;;;5053523;28;20033;-76
2022/06/11 08:02:57;;;;;;;4.38;2.20;;;27.10;46.00;;;;;;5035848;28;20029;-77
2022/06/11 08:05:23;;;;;;;3.97;2.20;;;27.10;45.90;;;;;;5053165;28;20029;-78
2022/06/11 08:07:51;;;;;;;3.22;2.13;;;27.10;45.70;;;;;;5035913;28;20426;-78
2022/06/11 08:10:18;;;;;;;3.28;2.47;;;27.10;45.60;;;;;;5035446;28;20033;-77
2022/06/11 08:12:44;;;;;;;2.53;2.22;;;27.10;45.50;;;;;;5053972;28;20096;-76
2022/06/11 08:15:11;;;;;;;5.47;2.45;;;27.10;45.60;;;;;;5053774;28;20522;-77
2022/06/11 08:17:38;;;;;;;3.47;2.42;;;27.20;45.60;;;;;;5053384;28;20108;-77
2022/06/11 08:20:05;;;;;;;3.03;2.40;;;27.10;45.50;;;;;;5053466;28;20524;-77
2022/06/11 08:22:31;;;;;;;2.85;2.45;;;27.20;45.50;;;;;;5035548;28;20033;-77
2022/06/11 08:24:57;;;;;;;5.03;2.70;;;27.20;45.50;;;;;;5053652;28;20029;-77
2022/06/11 08:27:25;;;;;;;2.45;1.98;;;27.10;45.40;;;;;;5057532;28;20398;-77
2022/06/11 08:29:51;;;;;;;3.45;2.30;;;27.20;45.40;;;;;;5057405;28;20459;-77
2022/06/11 08:32:17;;;;;;;3.75;2.30;;;27.20;45.30;;;;;;5039693;28;20430;-77
2022/06/11 08:34:46;;;;;;;2.42;2.20;;;27.30;45.30;;;;;;5057442;28;20103;-77
2022/06/11 08:37:13;;;;;;;3.53;2.40;;;27.30;45.30;;;;;;5056946;28;20105;-77
2022/06/11 08:39:39;;;;;;;2.20;2.00;;;27.30;45.20;;;;;;5056716;28;20048;-77
2022/06/11 08:42:07;;;;;;;3.63;2.10;;;27.40;45.30;;;;;;5057338;28;20108;-77
2022/06/11 08:44:36;;;;;;;3.38;2.35;;;27.30;45.10;;;;;;5057264;28;20025;-77
2022/06/11 08:47:12;;;;;;;3.88;2.28;;;27.30;45.10;;;;;;5039088;28;20082;-78
2022/06/11 08:49:51;;;;;;;3.17;2.33;;;27.40;45.10;;;;;;5057214;28;20029;-78
2022/06/11 08:52:21;;;;;;;2.60;2.17;;;27.40;45.00;;;;;;5039518;28;20029;-78
2022/06/11 08:54:48;;;;;;;2.88;1.80;;;27.40;45.10;;;;;;5057257;28;20472;-78
2022/06/11 08:57:49;;;;;;;2.53;2.05;;;27.40;45.00;;;;;;5056772;28;20112;-77
2022/06/11 09:00:16;;;;;;;2.20;2.00;;;27.40;44.90;;;;;;5056857;28;20035;-76
2022/06/11 09:02:45;;;;;;;2.83;2.30;;;27.50;45.10;;;;;;5056824;28;20116;-76
2022/06/11 09:05:33;;;;;;;2.40;2.20;;;27.50;45.10;;;;;;5057080;28;20029;-76
2022/06/11 09:08:23;;;;;;;5.22;2.10;;;27.50;45.00;;;;;;5057116;28;20029;-77
2022/06/11 09:11:04;;;;;;;2.78;2.20;;;27.50;45.00;;;;;;5056628;28;20383;-77
2022/06/11 09:13:48;;;;;;;2.65;2.00;;;27.50;45.10;;;;;;5056717;28;20032;-77
2022/06/11 09:16:16;;;;;;;;;;;27.60;45.00;;;;;;5056949;28;20037;-77
2022/06/11 09:18:54;;;;;;;3.10;2.28;;;27.60;44.60;;;;;;5056687;28;19911;-77
2022/06/11 09:21:28;;;;;;;2.22;2.03;;;27.60;45.00;;;;;;5056475;28;20052;-77
2022/06/11 09:24:06;;;;;;;2.08;1.90;;;27.60;45.10;;;;;;5056492;28;20483;-77
2022/06/11 09:26:43;;;;;;;2.00;1.80;;;27.60;45.00;;;;;;5056174;28;20057;-77
2022/06/11 09:29:27;;;;;;;2.67;2.08;;;27.70;45.00;;;;;;5056174;28;20064;-77
2022/06/11 09:32:01;;;;;;;3.03;2.08;;;27.70;44.90;;;;;;5056778;28;20033;-77
2022/06/11 09:34:59;;;;;;;3.75;1.92;;;27.70;45.60;;;;;;5056359;28;20032;-77
2022/06/11 09:37:41;;;;;;;2.95;2.28;;;27.80;44.90;;;;;;5020202;28;20040;-77
2022/06/11 09:40:31;;;;;;;3.55;1.85;;;27.80;44.80;;;;;;5057036;28;20382;-77
2022/06/11 09:43:15;;;;;;;2.88;2.10;;;27.90;44.50;;;;;;5056081;28;20036;-77
2022/06/11 09:45:46;;;;;;;2.63;1.98;;;27.90;44.50;;;;;;5056115;28;20033;-77
2022/06/11 09:48:21;;;;;;;3.53;2.00;;;27.90;44.50;;;;;;5055959;28;20033;-77
2022/06/11 09:51:17;;;;;;;2.83;1.67;;;27.90;44.40;;;;;;5056002;28;20420;-77
2022/06/11 09:53:54;;;;;;;2.70;2.17;;;27.90;43.80;;;;;;5055740;28;20707;-77
2022/06/11 09:56:45;;;;;;;3.88;2.10;;;27.90;43.90;;;;;;5055743;28;20025;-77
2022/06/11 09:59:32;;;;;;;2.25;2.05;;;27.90;43.30;;;;;;5056162;28;20131;-77
2022/06/11 10:02:07;;;;;;;3.20;2.25;;;27.90;43.50;;;;;;5055859;28;20086;-77
2022/06/11 10:04:43;;;;;;;4.05;2.35;;;27.90;43.40;;;;;;5055820;28;20029;-77
2022/06/11 10:07:25;;;;;;;2.13;1.92;;;27.90;43.00;;;;;;5037539;28;20039;-76
2022/06/11 10:09:57;;;;;;;3.80;2.40;;;27.90;42.70;;;;;;5037588;28;20044;-76
2022/06/11 10:12:40;;;;;;;3.60;2.42;;;27.90;42.70;;;;;;5055694;28;20039;-77
2022/06/11 10:15:11;;;;;;;3.25;2.60;;;27.90;42.30;;;;;;5055480;28;20105;-77
2022/06/11 10:18:00;;;;;;;5.03;3.17;;;27.90;41.70;;;;;;5055545;28;20071;-77
2022/06/11 10:20:41;;;;;;;3.45;2.70;;;27.90;42.00;;;;;;5054714;28;20115;-77
2022/06/11 10:23:40;;;;;;;4.50;2.72;;;27.90;41.50;;;;;;5037330;28;20036;-77
2022/06/11 10:26:20;;;;;;;3.65;2.58;;;27.90;41.10;;;;;;5044355;28;20041;-76
2022/06/11 10:29:05;;;;;;;4.40;2.67;;;27.90;41.00;;;;;;5055316;28;20460;-76
2022/06/11 10:31:58;;;;;;;5.93;2.90;;;27.90;40.60;;;;;;5037423;28;20040;-77
2022/06/11 10:34:26;;;;;;;3.63;2.65;;;27.90;40.50;;;;;;5055362;28;20030;-77
2022/06/11 10:36:57;;;;;;;4.07;2.80;;;28.00;41.10;;;;;;5037136;28;20387;-77
2022/06/11 10:39:23;;;;;;;5.30;2.78;;;28.00;40.80;;;;;;5055081;28;20485;-76
2022/06/11 10:41:56;;;;;;;4.18;2.40;;;28.10;40.90;;;;;;5054834;28;20053;-78
2022/06/11 10:44:35;;;;;;;3.40;2.40;;;28.10;40.60;;;;;;5037050;28;20157;-77
2022/06/11 10:47:20;;;;;;;6.13;2.80;;;28.10;40.50;;;;;;5036720;28;20032;-77
2022/06/11 10:49:50;;;;;;;2.53;2.05;;;28.10;40.40;;;;;;5054673;28;20056;-77
2022/06/11 10:52:27;;;;;;;2.55;2.20;;;28.10;40.30;;;;;;5036594;28;20500;-78
2022/06/11 10:54:53;;;;;;;3.47;2.42;;;28.20;40.10;;;;;;5054370;28;20044;-77
2022/06/11 10:57:27;;;;;;;2.60;2.30;;;28.20;40.20;;;;;;5054873;28;20375;-76
2022/06/11 11:00:00;;;;;;;;;;;28.20;39.90;;;;;;5037549;28;20043;-76
2022/06/11 11:02:41;;;;;;;3.92;2.08;;;28.20;38.80;;;;;;5054548;28;19995;-78
2022/06/11 11:05:11;;;;;;;3.72;2.30;;;28.20;39.80;;;;;;5054737;28;20028;-78
2022/06/11 11:07:57;;;;;;;3.13;1.83;;;28.30;39.80;;;;;;5054364;28;20033;-77
2022/06/11 11:10:42;;;;;;;3.17;2.10;;;28.30;39.50;;;;;;5036569;28;20033;-77
2022/06/11 11:13:28;;;;;;;2.75;1.90;;;28.40;39.10;;;;;;5054872;28;20502;-77
2022/06/11 11:16:01;;;;;;;4.40;2.10;;;28.40;38.70;;;;;;5036245;28;20078;-77
2022/06/11 11:18:35;;;;;;;2.92;2.08;;;28.50;39.40;;;;;;5054837;28;20025;-77
2022/06/11 11:21:02;;;;;;;4.13;1.95;;;28.40;39.20;;;;;;5054402;28;20116;-77
2022/06/11 11:23:38;;;;;;;3.65;2.20;;;28.50;39.20;;;;;;5054202;28;20025;-77
2022/06/11 11:26:35;;;;;;;1.90;1.70;;;28.50;39.00;;;;;;5036473;28;20033;-77
2022/06/11 11:29:08;;;;;;;3.75;1.95;;;28.50;38.40;;;;;;5054153;28;20491;-77
2022/06/11 11:31:45;;;;;;;3.53;1.83;;;28.50;39.00;;;;;;5036415;28;20044;-77
2022/06/11 11:34:10;;;;;;;2.22;1.92;;;28.60;38.90;;;;;;5054118;28;20029;-77
2022/06/11 11:36:36;;;;;;;2.83;1.90;;;28.50;39.00;;;;;;5053903;28;20036;-77
2022/06/11 11:39:15;;;;;;;1.88;1.70;;;28.50;39.00;;;;;;5053872;28;20044;-77
2022/06/11 11:41:50;;;;;;;2.70;1.90;;;28.50;38.70;;;;;;5053825;28;20045;-77
2022/06/11 11:44:22;;;;;;;2.63;2.00;;;28.60;39.00;;;;;;5053690;28;20021;-77
2022/06/11 11:46:58;;;;;;;2.67;1.63;;;28.60;38.90;;;;;;5035849;28;20032;-77
2022/06/11 11:49:33;;;;;;;1.90;1.80;;;28.60;38.80;;;;;;5053817;28;20112;-77
2022/06/11 11:52:03;;;;;;;2.55;1.88;;;28.60;38.60;;;;;;5045611;28;20036;-76
2022/06/11 11:54:29;;;;;;;3.58;1.85;;;28.70;38.80;;;;;;5053602;28;20029;-77
2022/06/11 11:57:00;;;;;;;1.75;1.50;;;28.70;38.70;;;;;;5054246;28;20044;-76
2022/06/11 11:59:41;;;;;;;2.00;1.80;;;28.70;38.70;;;;;;5053320;28;20029;-77
2022/06/11 12:02:27;;;;;;;1.67;1.50;;;28.80;38.50;;;;;;5053793;28;20021;-77
2022/06/11 12:05:07;;;;;;;1.95;1.30;;;28.80;38.20;;;;;;5053401;28;20435;-76
2022/06/11 12:07:36;;;;;;;4.47;1.60;;;28.90;38.70;;;;;;5053850;28;20486;-77
2022/06/11 12:10:20;;;;;;;2.78;1.27;;;28.90;38.50;;;;;;5052964;28;20494;-77
2022/06/11 12:12:51;;;;;;;1.80;1.52;;;29.00;39.10;;;;;;5053472;28;20411;-77
2022/06/11 12:15:19;;;;;;;1.90;1.38;;;29.00;38.50;;;;;;5053501;28;20112;-77
2022/06/11 12:17:52;;;;;;;2.40;1.30;;;29.00;38.50;;;;;;5053042;28;20027;-76
2022/06/11 12:20:21;;;;;;;2.70;1.60;;;29.10;38.50;;;;;;5035640;28;20036;-76
2022/06/11 12:22:53;;;;;;;1.27;1.23;;;29.10;38.50;;;;;;5054082;28;20029;-75
2022/06/11 12:25:29;;;;;;;2.13;1.67;;;29.20;38.50;;;;;;5053314;28;20029;-77
2022/06/11 12:27:56;;;;;;;1.20;1.10;;;29.20;38.40;;;;;;5053655;28;20060;-77
2022/06/11 12:30:27;;;;;;;2.60;1.58;;;29.20;38.30;;;;;;5053285;28;20025;-77
2022/06/11 12:32:53;;;;;;;2.67;1.30;;;29.30;38.30;;;;;;5035126;28;20028;-77
2022/06/11 12:35:41;;;;;;;1.90;1.38;;;29.30;38.40;;;;;;5053727;28;20117;-76
2022/06/11 12:38:33;;;;;;;2.30;1.50;;;29.40;38.00;;;;;;5053327;28;20515;-76
2022/06/11 12:41:13;;;;;;;2.00;1.75;;;29.50;37.90;;;;;;5053318;28;20065;-77
2022/06/11 12:43:44;;;;;;;3.05;1.60;;;29.60;38.20;;;;;;5053308;28;20029;-77
2022/06/11 12:46:19;;;;;;;2.13;1.50;;;29.70;38.20;;;;;;5053053;28;20025;-77
2022/06/11 12:48:48;;;;;;;2.35;1.60;;;29.80;38.10;;;;;;5053529;28;20040;-76
2022/06/11 12:51:29;;;;;;;2.55;1.52;;;29.90;38.10;;;;;;5053001;28;20033;-77
2022/06/11 12:54:01;;;;;;;4.00;1.63;;;29.90;38.10;;;;;;5053041;28;20033;-76
2022/06/11 12:56:32;;;;;;;2.28;1.55;;;30.00;38.10;;;;;;5053367;28;20471;-74
2022/06/11 12:59:35;;;;;;;3.20;1.67;;;30.10;38.00;;;;;;5053147;28;20467;-77
2022/06/11 13:02:16;;;;;;;2.08;1.60;;;30.10;37.70;;;;;;5053061;28;20029;-77
2022/06/11 13:04:44;;;;;;;4.45;1.58;;;30.20;37.90;;;;;;5053238;28;20049;-77
2022/06/11 13:07:29;;;;;;;1.65;1.40;;;30.30;37.90;;;;;;5053516;28;20104;-76
2022/06/11 13:10:25;;;;;;;1.50;1.40;;;30.40;37.70;;;;;;5052582;28;20095;-77
2022/06/11 13:13:18;;;;;;;3.03;1.80;;;30.50;37.70;;;;;;5056426;28;20118;-77